Thunder radar more information blitzortung!


Radar de pluja more information rain snow radar


Visita la nostra xarxa de llocs de meteo:

Template documentation
and downloads

And another site



No particular awareness of the weather is required.    There are no Weather-warnings

Pagina Historial Weather Underground text

Diari Resum Juliol 3, 2017 Unitats:  Imperial    Mètric   Tant
« Previous Dia
SegĂźent Dia »
Diari Setmana Mensual Anual Personalitzada
  Maxima: Minima: Media:
Temperatura: 89.2 °F 60.8 °F 77.7 °F
Punt de rosada: 57.7 °F 47.7 °F 52.5 °F
Humitat: 76 % 28 % 43 %
Wind Speed: 13.8 mph 0 mph 4.5 mph
RĂ fegues de vent: 13.8 mph - -
Vent:- - SSW
Pression baro: 30.2 in 30 in -
Precipitacions: 0 in    
Historical Graphs
 
 
Dades de taula per Juliol 3, 2017
Temps Temperatura Punt de rosada Pression baro Vent Wind Speed RĂ fegues de vent Humitat Rainfall Rate (Hourly)
00:00 62.2 °F 51.4 °F 30.1 in Calm     68 % 0 in
00:03 68.9 °F 51.6 °F 30.2 in NE 2.3 mph 2.3 mph 54 % 0 in
00:10 62.1 °F 51.4 °F 30.1 in Calm     68 % 0 in
00:20 61.3 °F 50.7 °F 30.1 in SSW 2 mph 2 mph 68 % 0 in
00:30 60.8 °F 50.5 °F 30.1 in SW 1 mph 2 mph 69 % 0 in
00:40 61 °F 51.1 °F 30.1 in Calm   1 mph 70 % 0 in
00:50 61.2 °F 51.3 °F 30.1 in Calm     70 % 0 in
01:00 61 °F 51.1 °F 30.1 in Calm     70 % 0 in
01:10 61 °F 51.1 °F 30.1 in Calm   1 mph 70 % 0 in
01:20 61.2 °F 51.6 °F 30.1 in Calm   1 mph 71 % 0 in
01:30 61 °F 51.1 °F 30.2 in Calm   1 mph 70 % 0 in
01:40 60.8 °F 51.3 °F 30.2 in ENE 1 mph 1 mph 71 % 0 in
01:50 61.3 °F 52 °F 30.2 in Calm   1 mph 71 % 0 in
02:00 62.1 °F 52.5 °F 30.2 in NE 1 mph 1 mph 71 % 0 in
02:10 61.5 °F 51.3 °F 30.2 in NNE 1 mph 2 mph 69 % 0 in
02:20 61.5 °F 51.3 °F 30.2 in SW 2 mph 2 mph 69 % 0 in
02:30 61.9 °F 51.6 °F 30.2 in SW 1 mph 2 mph 69 % 0 in
02:40 63.1 °F 52.9 °F 30.2 in Calm   3 mph 69 % 0 in
02:50 63.3 °F 52.2 °F 30.2 in SSW 1 mph 3 mph 67 % 0 in
03:00 64.8 °F 53.4 °F 30.2 in Calm   1 mph 67 % 0 in
03:10 64.8 °F 52.7 °F 30.2 in SW 1 mph 2 mph 65 % 0 in
03:20 66.4 °F 53.4 °F 30.2 in Calm   2 mph 63 % 0 in
03:30 67.1 °F 52.7 °F 30.2 in East 2 mph 4 mph 60 % 0 in
03:40 68.4 °F 53.1 °F 30.2 in NE 2 mph 2 mph 58 % 0 in
03:50 68.4 °F 52.5 °F 30.2 in NNE 2 mph 4 mph 57 % 0 in
04:00 70 °F 53.6 °F 30.2 in NNE 5 mph 5 mph 56 % 0 in
04:10 70.7 °F 53.8 °F 30.2 in NNE 2 mph 4 mph 55 % 0 in
04:20 72.3 °F 54.7 °F 30.2 in ESE 1 mph 2 mph 54 % 0 in
04:30 72.7 °F 54.7 °F 30.2 in SSW 1 mph 3 mph 53 % 0 in
04:40 73.4 °F 54.7 °F 30.2 in SW 1 mph 3 mph 52 % 0 in
04:50 73.8 °F 54.5 °F 30.2 in SSW 1 mph 3 mph 51 % 0 in
05:00 74.3 °F 55 °F 30.2 in Calm   4 mph 51 % 0 in
05:10 75.9 °F 55.9 °F 30.2 in SSW 1 mph 3 mph 50 % 0 in
05:20 76.8 °F 56.1 °F 30.2 in South 2 mph 3 mph 49 % 0 in
05:30 77 °F 55.2 °F 30.2 in SSE 3 mph 3 mph 47 % 0 in
05:35 75.6 °F 54 °F 30.2 in SE 2 mph 4 mph 47 % 0 in
10:36 75.7 °F 54.1 °F 30.2 in East 2.9 mph 3.6 mph 47 % 0 in
10:37 75.7 °F 54.1 °F 30.2 in SE 2.6 mph 3.6 mph 47 % 0 in
10:42 77 °F 55.2 °F 30.2 in WNW 3.5 mph 3.5 mph 47 % 0 in
10:47 77.4 °F 55.6 °F 30.2 in SW 4.6 mph 4.6 mph 47 % 0 in
10:52 77.9 °F 55.6 °F 30.2 in SE 2.3 mph 2.3 mph 46 % 0 in
10:57 77.4 °F 55 °F 30.2 in SSW 2.3 mph 2.3 mph 46 % 0 in
11:02 78.1 °F 55 °F 30.2 in SSE 3.5 mph 3.5 mph 45 % 0 in
11:07 78.1 °F 55 °F 30.2 in East 3.6 mph 3.6 mph 45 % 0 in
11:12 77.9 °F 54.9 °F 30.2 in ENE 3.5 mph 3.5 mph 45 % 0 in
11:17 79 °F 55.2 °F 30.2 in WSW 2.4 mph 2.4 mph 44 % 0 in
11:22 79.2 °F 55.4 °F 30.2 in SE 4.6 mph 4.6 mph 44 % 0 in
11:27 79.7 °F 55.9 °F 30.2 in SSW 3.5 mph 3.5 mph 44 % 0 in
11:32 80.4 °F 56.5 °F 30.2 in WNW 6.9 mph 6.9 mph 44 % 0 in
11:37 82.6 °F 57.2 °F 30.2 in SW 2.6 mph 2.6 mph 42 % 0 in
11:42 82.4 °F 57 °F 30.1 in WSW 4.6 mph 4.6 mph 42 % 0 in
11:47 83.1 °F 57.6 °F 30.1 in SW 3.5 mph 3.5 mph 42 % 0 in
11:52 82.9 °F 56.8 °F 30.1 in ESE 4.3 mph 4.3 mph 41 % 0 in
11:57 82 °F 55.2 °F 30.1 in SSE 3.5 mph 3.5 mph 40 % 0 in
12:02 81.7 °F 55.8 °F 30.1 in ESE 3.5 mph 3.5 mph 41 % 0 in
12:07 82.2 °F 55.6 °F 30.1 in ENE 3.5 mph 3.5 mph 40 % 0 in
12:12 82.6 °F 56.5 °F 30.1 in SW 4 mph 4 mph 41 % 0 in
12:17 83.8 °F 56.8 °F 30.1 in SW 5.8 mph 5.8 mph 40 % 0 in
12:22 85.1 °F 56.7 °F 30.1 in SW 2.4 mph 2.4 mph 38 % 0 in
12:27 84.6 °F 56.1 °F 30.1 in NW 3.5 mph 3.5 mph 38 % 0 in
12:32 84.9 °F 56.5 °F 30.1 in SW 4.6 mph 4.6 mph 38 % 0 in
12:37 85.6 °F 56.5 °F 30.1 in SSW 3.5 mph 3.5 mph 37 % 0 in
12:42 85.6 °F 56.5 °F 30.1 in SSW 2.3 mph 2.3 mph 37 % 0 in
12:47 85.8 °F 55.8 °F 30.1 in West 5.8 mph 5.8 mph 36 % 0 in
12:52 85.3 °F 54.5 °F 30.1 in WSW 8.1 mph 8.1 mph 35 % 0 in
12:57 86 °F 55.2 °F 30.1 in WSW 5.8 mph 5.8 mph 35 % 0 in
13:02 86.2 °F 54.5 °F 30.1 in WSW 6.9 mph 6.9 mph 34 % 0 in
13:07 86 °F 53.4 °F 30.1 in SW 6 mph 6 mph 33 % 0 in
13:12 86.5 °F 54 °F 30.1 in SSE 2.9 mph 2.9 mph 33 % 0 in
13:17 86.7 °F 53.2 °F 30.1 in SW 8.1 mph 8.1 mph 32 % 0 in
13:22 87.1 °F 54.5 °F 30.1 in SW 6.9 mph 6.9 mph 33 % 0 in
13:27 86.5 °F 53.2 °F 30.1 in South 5.8 mph 5.8 mph 32 % 0 in
13:32 87.8 °F 53.4 °F 30.1 in SSE 2.3 mph 2.3 mph 31 % 0 in
13:37 85.8 °F 53.4 °F 30.1 in WSW 3.3 mph   33 % 0 in
13:42 87.4 °F 54.9 °F 30.1 in SSW 4.6 mph 4.6 mph 33 % 0 in
13:47 87.6 °F 55 °F 30.1 in West 6.9 mph 6.9 mph 33 % 0 in
13:52 88.2 °F 54.7 °F 30.1 in SSE 4 mph 4 mph 32 % 0 in
13:57 88.2 °F 54.7 °F 30.1 in SW 3.5 mph 4.5 mph 32 % 0 in
14:02 89.1 °F 56.1 °F 30.1 in West 4.6 mph 4.6 mph 33 % 0 in
14:07 86.5 °F 55.6 °F 30.1 in ENE 5.8 mph 5.8 mph 35 % 0 in
14:12 86.9 °F 55.9 °F 30.1 in SW 8.1 mph 8.1 mph 35 % 0 in
14:17 88.7 °F 56.7 °F 30.1 in SW 2.3 mph 2.6 mph 34 % 0 in
14:22 89.1 °F 57 °F 30.1 in SW 5.8 mph 5.8 mph 34 % 0 in
14:27 88.7 °F 56.7 °F 30.1 in West 7.1 mph 7.1 mph 34 % 0 in
14:32 88.9 °F 56.8 °F 30.1 in SW 6.2 mph 6.2 mph 34 % 0 in
14:37 88.2 °F 56.3 °F 30.1 in SSW 10.4 mph 10.4 mph 34 % 0 in
14:42 88.7 °F 56.7 °F 30.1 in SW 8.1 mph 8.1 mph 34 % 0 in
14:47 88.5 °F 56.7 °F 30.1 in WSW 6 mph 6 mph 34 % 0 in
14:52 88.5 °F 55.8 °F 30.1 in West 4.6 mph 4.7 mph 33 % 0 in
14:57 88.5 °F 55.8 °F 30.1 in SSW 9.2 mph 9.2 mph 33 % 0 in
15:02 88.3 °F 54.7 °F 30.1 in SSW 5.9 mph 5.9 mph 32 % 0 in
15:07 88.2 °F 54.7 °F 30.1 in SSW 9.2 mph 9.2 mph 32 % 0 in
15:12 88.2 °F 54.7 °F 30.1 in SW 9.2 mph 9.2 mph 32 % 0 in
15:17 88.2 °F 53.8 °F 30.1 in SW 5.8 mph 5.8 mph 31 % 0 in
15:22 88.3 °F 54 °F 30.1 in SW 6.9 mph 6.9 mph 31 % 0 in
15:27 88.5 °F 54 °F 30.1 in WNW 5.8 mph 5.8 mph 31 % 0 in
15:32 88.2 °F 52.9 °F 30.1 in SSW 4.3 mph 4.5 mph 30 % 0 in
15:37 88 °F 52.7 °F 30.1 in SW 5.9 mph 5.9 mph 30 % 0 in
15:42 88 °F 52.7 °F 30.1 in South 6.7 mph 6.7 mph 30 % 0 in
15:47 88.7 °F 53.2 °F 30.1 in SSW 9.2 mph 9.2 mph 30 % 0 in
15:52 88.3 °F 53.1 °F 30.1 in South 9.2 mph 9.2 mph 30 % 0 in
15:57 88.3 °F 53.1 °F 30.1 in SW 6.9 mph 6.9 mph 30 % 0 in
16:02 87.4 °F 51.3 °F 30.1 in SW 8.1 mph 8.1 mph 29 % 0 in
16:07 88.5 °F 52.2 °F 30.1 in WSW 10 mph 10 mph 29 % 0 in
16:12 88.7 °F 52.3 °F 30.1 in South 8.1 mph 8.1 mph 29 % 0 in
16:17 89.2 °F 52.9 °F 30.1 in SW 6.9 mph 6.9 mph 29 % 0 in
16:22 87.8 °F 51.6 °F 30.1 in SW 10.4 mph 10.4 mph 29 % 0 in
16:27 87.3 °F 51.1 °F 30.1 in WSW 9 mph 9 mph 29 % 0 in
16:32 86.5 °F 49.6 °F 30.1 in SW 12.7 mph 12.7 mph 28 % 0 in
16:37 86.2 °F 49.3 °F 30.1 in WNW 12.7 mph 12.7 mph 28 % 0 in
16:42 85.6 °F 48.7 °F 30.1 in SSW 10.4 mph 10.4 mph 28 % 0 in
16:47 85.3 °F 48.6 °F 30.1 in SW 9.2 mph 9.2 mph 28 % 0 in
16:52 85.8 °F 48.9 °F 30.1 in SSE 8.1 mph 8.1 mph 28 % 0 in
16:57 84.9 °F 48.2 °F 30.1 in SW 12.7 mph 12.7 mph 28 % 0 in
17:02 85.3 °F 49.5 °F 30.1 in WSW 9.7 mph 9.7 mph 29 % 0 in
17:07 85.5 °F 49.6 °F 30.1 in SSW 8.1 mph 8.1 mph 29 % 0 in
17:12 84.6 °F 47.8 °F 30 in SSW 10.4 mph 10.4 mph 28 % 0 in
17:17 84 °F 48.4 °F 30 in SW 12.7 mph 12.7 mph 29 % 0 in
17:22 84.2 °F 47.7 °F 30 in SW 9.2 mph 9.2 mph 28 % 0 in
17:27 84.7 °F 48.9 °F 30.1 in SSW 10.4 mph 10.4 mph 29 % 0 in
17:32 84.6 °F 48.7 °F 30.1 in South 9.2 mph 9.2 mph 29 % 0 in
17:37 84.6 °F 48.7 °F 30.1 in WSW 12.7 mph 12.7 mph 29 % 0 in
17:42 84 °F 49.3 °F 30.1 in SSW 9.2 mph 9.2 mph 30 % 0 in
17:47 84 °F 49.3 °F 30.1 in SW 8.5 mph 8.5 mph 30 % 0 in
17:52 84.2 °F 48.6 °F 30.1 in SW 10.4 mph 10.4 mph 29 % 0 in
17:57 83.8 °F 49.1 °F 30 in West 9.2 mph 9.2 mph 30 % 0 in
18:02 84 °F 49.3 °F 30 in SSE 8.1 mph 8.1 mph 30 % 0 in
18:07 83.3 °F 48.6 °F 30 in SSW 13.8 mph 13.8 mph 30 % 0 in
18:12 83.7 °F 48.9 °F 30.1 in SW 8.1 mph 8.1 mph 30 % 0 in
18:17 83.7 °F 48.9 °F 30.1 in SW 6.2 mph 6.2 mph 30 % 0 in
18:22 83.3 °F 48.6 °F 30.1 in SW 6.9 mph 6.9 mph 30 % 0 in
18:27 83.7 °F 49.8 °F 30.1 in SSW 7.8 mph 7.8 mph 31 % 0 in
18:32 83.3 °F 49.5 °F 30.1 in WSW 9.2 mph 9.2 mph 31 % 0 in
18:37 82.2 °F 48.6 °F 30.1 in South 6.9 mph 6.9 mph 31 % 0 in
18:42 82.8 °F 48.9 °F 30.1 in SSE 5.6 mph 5.6 mph 31 % 0 in
18:47 82.8 °F 48.9 °F 30.1 in SSW 5.4 mph 5.4 mph 31 % 0 in
18:52 82 °F 49.3 °F 30.1 in WSW 6.9 mph 6.9 mph 32 % 0 in
18:57 81.5 °F 48.7 °F 30.1 in SSW 10.4 mph 10.4 mph 32 % 0 in
19:02 81.3 °F 48.6 °F 30.1 in South 8.1 mph 8.1 mph 32 % 0 in
19:07 81.1 °F 48.6 °F 30.1 in South 8.1 mph 8.1 mph 32 % 0 in
19:10 70.2 °F 52.7 °F 30.2 in WSW 3 mph 3 mph 54 % 0 in
19:12 81.3 °F 48.6 °F 30.1 in SW 6.9 mph 6.9 mph 32 % 0 in
19:17 80.8 °F 48.2 °F 30.1 in South 5.9 mph 5.9 mph 32 % 0 in
19:20 70 °F 53.1 °F 30.1 in SW 1 mph 3 mph 55 % 0 in
19:22 80.4 °F 48.7 °F 30.1 in WSW 8.1 mph 8.1 mph 33 % 0 in
19:27 80.1 °F 49.3 °F 30.1 in South 5.8 mph 5.8 mph 34 % 0 in
19:30 69.6 °F 53.2 °F 30.1 in WSW 2 mph 2 mph 56 % 0 in
19:32 80.2 °F 49.3 °F 30.1 in SSW 9.2 mph 9.2 mph 34 % 0 in
19:37 80.1 °F 49.3 °F 30.1 in West 2.3 mph 2.3 mph 34 % 0 in
19:40 69.4 °F 54 °F 30.1 in WSW 1 mph 2 mph 58 % 0 in
19:42 79.9 °F 49.8 °F 30.1 in SW 8.1 mph 8.1 mph 35 % 0 in
19:47 79.7 °F 49.6 °F 30.1 in East 5.8 mph 5.8 mph 35 % 0 in
19:50 69.3 °F 53.8 °F 30.1 in West 1 mph 3 mph 58 % 0 in
19:52 79.5 °F 50.2 °F 30.1 in SW 6.9 mph 6.9 mph 36 % 0 in
19:57 79.3 °F 50.2 °F 30.1 in WSW 3.5 mph 3.5 mph 36 % 0 in
20:00 69.3 °F 54.9 °F 30.1 in West 2 mph 3 mph 60 % 0 in
20:02 79 °F 49.6 °F 30.1 in SSW 9.2 mph 9.2 mph 36 % 0 in
20:07 79 °F 50.5 °F 30.1 in SW 5.8 mph 5.8 mph 37 % 0 in
20:10 69.1 °F 54.7 °F 30.1 in West 2 mph 2 mph 60 % 0 in
20:12 78.6 °F 50.2 °F 30.1 in SSW 8.7 mph 8.7 mph 37 % 0 in
20:17 78.4 °F 50 °F 30.1 in South 5.8 mph 5.8 mph 37 % 0 in
20:20 68.9 °F 55.2 °F 30.1 in West 2 mph 3 mph 62 % 0 in
20:22 78.3 °F 49.8 °F 30.1 in SW 8.1 mph 8.1 mph 37 % 0 in
20:27 77.9 °F 50.2 °F 30.1 in SW 5.8 mph 5.8 mph 38 % 0 in
20:32 77.7 °F 50.2 °F 30.1 in SW 6.4 mph 6.4 mph 38 % 0 in
20:34 77.5 °F 49.8 °F 30.1 in WSW 6.9 mph 6.9 mph 38 % 0 in
20:39 77.5 °F 49.8 °F 30.1 in SSW 4 mph 4 mph 38 % 0 in
20:40 68.5 °F 55.4 °F 30.1 in WSW 2 mph 2 mph 63 % 0 in
20:44 77.2 °F 50.4 °F 30.1 in SW 5.6 mph 5.6 mph 39 % 0 in
20:49 77 °F 50.2 °F 30.1 in SSE 3.5 mph 3.5 mph 39 % 0 in
20:50 68.5 °F 56.3 °F 30.1 in West 2 mph 2 mph 65 % 0 in
20:54 76.6 °F 50.5 °F 30.1 in SW 5.8 mph 5.8 mph 40 % 0 in
20:59 76.5 °F 50.4 °F 30.1 in SW 2.3 mph 2.3 mph 40 % 0 in
21:00 68.5 °F 56.7 °F 30.1 in West 2 mph 3 mph 66 % 0 in
21:04 76.3 °F 50.7 °F 30.1 in SW 2.4 mph 2.4 mph 41 % 0 in
21:09 76.1 °F 50.7 °F 30.1 in SW 2.3 mph 2.3 mph 41 % 0 in
21:10 68.2 °F 57.2 °F 30.1 in Calm   1 mph 68 % 0 in
21:14 75.7 °F 50.4 °F 30.1 in SW 3.5 mph 3.5 mph 41 % 0 in
21:19 75.4 °F 50 °F 30.1 in WSW 3.5 mph 3.5 mph 41 % 0 in
21:20 67.8 °F 57.7 °F 30.1 in Calm     70 % 0 in
21:24 75.2 °F 50.5 °F 30.1 in South 3.5 mph 3.5 mph 42 % 0 in
21:29 74.8 °F 50.2 °F 30.1 in West 2.3 mph 2.3 mph 42 % 0 in
21:30 67.3 °F 56.8 °F 30.1 in Calm   1 mph 69 % 0 in
21:34 74.7 °F 50.7 °F 30.1 in SW 3.8 mph 3.8 mph 43 % 0 in
21:39 74.3 °F 50.4 °F 30.1 in WSW 4.6 mph 4.6 mph 43 % 0 in
21:40 66.7 °F 56.7 °F 30.1 in Calm     70 % 0 in
21:44 74.1 °F 50.7 °F 30.1 in SSW 2.3 mph 2.3 mph 44 % 0 in
21:49 73.9 °F 50.5 °F 30.1 in West 3.5 mph 3.5 mph 44 % 0 in
21:50 66.4 °F 56.7 °F 30.1 in Calm   1 mph 71 % 0 in
21:54 73.8 °F 51.1 °F 30.1 in West 2 mph 2 mph 45 % 0 in
21:55 73.8 °F 51.1 °F 30.1 in WNW 2.3 mph 2.3 mph 45 % 0 in
22:00 73.6 °F 50.9 °F 30.1 in WSW 2.3 mph 2.3 mph 45 % 0 in
22:05 73.4 °F 51.4 °F 30.1 in West 2.3 mph 2.3 mph 46 % 0 in
22:10 73.2 °F 51.3 °F 30.1 in WSW 2.3 mph 2.3 mph 46 % 0 in
22:15 73 °F 51.6 °F 30.1 in SW 2.3 mph 2.3 mph 47 % 0 in
22:20 73 °F 51.6 °F 30.1 in WSW 2.3 mph 2.3 mph 47 % 0 in
22:25 72.9 °F 51.4 °F 30.1 in WSW 0.9 mph 1.2 mph 47 % 0 in
22:30 72.7 °F 51.3 °F 30.1 in West 3.5 mph 3.5 mph 47 % 0 in
22:35 72.5 °F 51.1 °F 30.1 in WSW 4.6 mph 4.6 mph 47 % 0 in
22:40 72.5 °F 51.6 °F 30.1 in West 2.4 mph 2.4 mph 48 % 0 in
22:45 72.3 °F 51.4 °F 30.1 in SW 2.6 mph 2.6 mph 48 % 0 in
22:50 72.1 °F 51.4 °F 30.1 in WSW 2.3 mph 2.3 mph 48 % 0 in
22:55 72 °F 51.3 °F 30.1 in West 2.3 mph 2.3 mph 48 % 0 in
23:00 71.8 °F 51.1 °F 30.1 in SW 2.6 mph 2.6 mph 48 % 0 in
23:05 71.6 °F 51.4 °F 30.1 in SW 2.3 mph 2.3 mph 49 % 0 in
23:10 71.6 °F 51.4 °F 30.1 in SW 2.3 mph 2.3 mph 49 % 0 in
23:15 71.4 °F 51.3 °F 30.1 in West 2.3 mph 2.3 mph 49 % 0 in
23:20 71.2 °F 51.1 °F 30.1 in WSW 2.3 mph 2.3 mph 49 % 0 in
23:25 71.2 °F 51.6 °F 30.1 in WSW 1.2 mph 1.4 mph 50 % 0 in
23:30 71.1 °F 51.4 °F 30.1 in WNW 2.3 mph 2.3 mph 50 % 0 in
23:35 71.1 °F 52 °F 30.1 in WSW 1.4 mph   51 % 0 in
23:40 70.9 °F 51.8 °F 30.1 in West 2.3 mph 2.3 mph 51 % 0 in
23:41 70.9 °F 51.8 °F 30.1 in West 2.3 mph 2.3 mph 51 % 0 in
23:46 70.7 °F 51.6 °F 30.1 in West 2 mph 2 mph 51 % 0 in
23:50 63.9 °F 56.1 °F 30.1 in WNW 1 mph 2 mph 76 % 0 in
23:51 70.7 °F 52.2 °F 30.1 in West 2.6 mph 2.6 mph 52 % 0 in
23:56 70.5 °F 52 °F 30.1 in WSW 2.6 mph 2.6 mph 52 % 0 in
Meteo Sesrovires
Elogis d' Weather Underground - 3.75 mb

Guio original per  Jim McMurry - jmcmurry@mwt.net Adaptat per a la plantilla per  Wim van der Kuil - Leuven-Template.eu

Trobareu la nostra informacio del temps tambe a:

Weather Underground

AWEKAS